sensor_id;sensor_type;location;lat;lon;timestamp;P1;durP1;ratioP1;P2;durP2;ratioP2
8476;SDS011;4275;42.854;23.222;2024-02-04T00:00:18;13.43;;;13.03;;
8476;SDS011;4275;42.854;23.222;2024-02-04T00:02:46;13.77;;;13.27;;
8476;SDS011;4275;42.854;23.222;2024-02-04T00:05:14;14.80;;;14.30;;
8476;SDS011;4275;42.854;23.222;2024-02-04T00:07:40;15.40;;;14.90;;
8476;SDS011;4275;42.854;23.222;2024-02-04T00:10:08;13.23;;;12.83;;
8476;SDS011;4275;42.854;23.222;2024-02-04T00:12:35;12.77;;;12.37;;
8476;SDS011;4275;42.854;23.222;2024-02-04T00:15:02;14.57;;;14.07;;
8476;SDS011;4275;42.854;23.222;2024-02-04T00:17:30;15.20;;;14.70;;
8476;SDS011;4275;42.854;23.222;2024-02-04T00:20:00;13.20;;;12.80;;
8476;SDS011;4275;42.854;23.222;2024-02-04T00:22:28;13.83;;;13.43;;
8476;SDS011;4275;42.854;23.222;2024-02-04T00:24:55;16.27;;;15.67;;
8476;SDS011;4275;42.854;23.222;2024-02-04T00:27:26;18.67;;;17.97;;
8476;SDS011;4275;42.854;23.222;2024-02-04T00:29:53;15.63;;;15.03;;
8476;SDS011;4275;42.854;23.222;2024-02-04T00:32:20;14.73;;;14.23;;
8476;SDS011;4275;42.854;23.222;2024-02-04T00:34:47;17.90;;;17.20;;
8476;SDS011;4275;42.854;23.222;2024-02-04T00:37:15;16.50;;;15.90;;
8476;SDS011;4275;42.854;23.222;2024-02-04T00:39:42;14.00;;;13.50;;
8476;SDS011;4275;42.854;23.222;2024-02-04T00:42:09;14.40;;;13.90;;
8476;SDS011;4275;42.854;23.222;2024-02-04T00:44:36;16.60;;;16.00;;
8476;SDS011;4275;42.854;23.222;2024-02-04T00:47:03;16.63;;;16.03;;
8476;SDS011;4275;42.854;23.222;2024-02-04T00:49:30;13.53;;;13.10;;
8476;SDS011;4275;42.854;23.222;2024-02-04T00:51:57;13.20;;;12.80;;
8476;SDS011;4275;42.854;23.222;2024-02-04T00:54:26;15.73;;;15.23;;
8476;SDS011;4275;42.854;23.222;2024-02-04T00:56:52;14.77;;;14.27;;
8476;SDS011;4275;42.854;23.222;2024-02-04T00:59:20;13.13;;;12.73;;
8476;SDS011;4275;42.854;23.222;2024-02-04T01:01:47;12.67;;;12.27;;
8476;SDS011;4275;42.854;23.222;2024-02-04T01:04:14;12.63;;;12.23;;
8476;SDS011;4275;42.854;23.222;2024-02-04T01:06:40;12.77;;;12.37;;
8476;SDS011;4275;42.854;23.222;2024-02-04T01:09:07;12.67;;;12.27;;
8476;SDS011;4275;42.854;23.222;2024-02-04T01:11:36;12.23;;;11.83;;
8476;SDS011;4275;42.854;23.222;2024-02-04T01:14:03;11.67;;;11.37;;
8476;SDS011;4275;42.854;23.222;2024-02-04T01:16:30;12.97;;;12.57;;
8476;SDS011;4275;42.854;23.222;2024-02-04T01:18:57;12.83;;;12.43;;
8476;SDS011;4275;42.854;23.222;2024-02-04T01:21:24;11.70;;;11.40;;
8476;SDS011;4275;42.854;23.222;2024-02-04T01:23:52;11.27;;;10.97;;
8476;SDS011;4275;42.854;23.222;2024-02-04T01:26:19;11.20;;;10.90;;
8476;SDS011;4275;42.854;23.222;2024-02-04T01:28:50;11.10;;;10.80;;
8476;SDS011;4275;42.854;23.222;2024-02-04T01:31:17;10.33;;;10.03;;
8476;SDS011;4275;42.854;23.222;2024-02-04T01:33:44;10.70;;;10.40;;
8476;SDS011;4275;42.854;23.222;2024-02-04T01:36:11;11.07;;;10.77;;
8476;SDS011;4275;42.854;23.222;2024-02-04T01:38:37;10.87;;;10.57;;
8476;SDS011;4275;42.854;23.222;2024-02-04T01:41:04;10.83;;;10.53;;
8476;SDS011;4275;42.854;23.222;2024-02-04T01:43:31;11.77;;;11.43;;
8476;SDS011;4275;42.854;23.222;2024-02-04T01:46:00;11.80;;;11.40;;
8476;SDS011;4275;42.854;23.222;2024-02-04T01:48:27;12.13;;;11.73;;
8476;SDS011;4275;42.854;23.222;2024-02-04T01:50:54;12.87;;;12.47;;
8476;SDS011;4275;42.854;23.222;2024-02-04T01:53:24;15.40;;;14.90;;
8476;SDS011;4275;42.854;23.222;2024-02-04T01:55:52;14.87;;;14.37;;
8476;SDS011;4275;42.854;23.222;2024-02-04T01:58:20;12.70;;;12.30;;
8476;SDS011;4275;42.854;23.222;2024-02-04T02:00:47;12.80;;;12.40;;
8476;SDS011;4275;42.854;23.222;2024-02-04T02:03:17;14.10;;;13.70;;
8476;SDS011;4275;42.854;23.222;2024-02-04T02:05:44;15.87;;;15.37;;
8476;SDS011;4275;42.854;23.222;2024-02-04T02:08:12;14.10;;;13.60;;
8476;SDS011;4275;42.854;23.222;2024-02-04T02:10:40;15.30;;;14.80;;
8476;SDS011;4275;42.854;23.222;2024-02-04T02:13:14;15.43;;;14.93;;
8476;SDS011;4275;42.854;23.222;2024-02-04T02:15:44;12.80;;;12.40;;
8476;SDS011;4275;42.854;23.222;2024-02-04T02:18:14;12.80;;;12.40;;
8476;SDS011;4275;42.854;23.222;2024-02-04T02:20:52;15.17;;;14.67;;
8476;SDS011;4275;42.854;23.222;2024-02-04T02:23:34;14.67;;;14.17;;
8476;SDS011;4275;42.854;23.222;2024-02-04T02:26:08;14.20;;;13.70;;
8476;SDS011;4275;42.854;23.222;2024-02-04T02:28:35;16.50;;;15.90;;
8476;SDS011;4275;42.854;23.222;2024-02-04T02:31:02;17.03;;;16.33;;
8476;SDS011;4275;42.854;23.222;2024-02-04T02:33:29;15.00;;;14.40;;
8476;SDS011;4275;42.854;23.222;2024-02-04T02:35:56;15.03;;;14.43;;
8476;SDS011;4275;42.854;23.222;2024-02-04T02:38:31;17.57;;;16.87;;
8476;SDS011;4275;42.854;23.222;2024-02-04T02:41:03;17.70;;;17.00;;
8476;SDS011;4275;42.854;23.222;2024-02-04T02:43:32;14.90;;;14.30;;
8476;SDS011;4275;42.854;23.222;2024-02-04T02:46:00;15.20;;;14.60;;
8476;SDS011;4275;42.854;23.222;2024-02-04T02:48:27;17.93;;;17.13;;
8476;SDS011;4275;42.854;23.222;2024-02-04T02:50:54;16.90;;;16.20;;
8476;SDS011;4275;42.854;23.222;2024-02-04T02:53:21;14.43;;;13.83;;
8476;SDS011;4275;42.854;23.222;2024-02-04T02:55:48;14.40;;;13.80;;
8476;SDS011;4275;42.854;23.222;2024-02-04T02:58:15;16.77;;;16.07;;
8476;SDS011;4275;42.854;23.222;2024-02-04T03:00:44;17.07;;;16.37;;
8476;SDS011;4275;42.854;23.222;2024-02-04T03:03:11;14.60;;;14.00;;
8476;SDS011;4275;42.854;23.222;2024-02-04T03:05:38;17.07;;;16.37;;
8476;SDS011;4275;42.854;23.222;2024-02-04T03:08:05;16.40;;;15.80;;
8476;SDS011;4275;42.854;23.222;2024-02-04T03:10:32;13.80;;;13.30;;
8476;SDS011;4275;42.854;23.222;2024-02-04T03:12:59;14.10;;;13.60;;
8476;SDS011;4275;42.854;23.222;2024-02-04T03:15:27;16.33;;;15.73;;
8476;SDS011;4275;42.854;23.222;2024-02-04T03:17:54;15.57;;;14.97;;
8476;SDS011;4275;42.854;23.222;2024-02-04T03:20:21;15.77;;;15.17;;
8476;SDS011;4275;42.854;23.222;2024-02-04T03:22:48;12.80;;;12.40;;
8476;SDS011;4275;42.854;23.222;2024-02-04T03:25:15;14.83;;;14.33;;
8476;SDS011;4275;42.854;23.222;2024-02-04T03:27:42;14.50;;;14.00;;
8476;SDS011;4275;42.854;23.222;2024-02-04T03:30:09;12.90;;;12.50;;
8476;SDS011;4275;42.854;23.222;2024-02-04T03:32:37;12.60;;;12.20;;
8476;SDS011;4275;42.854;23.222;2024-02-04T03:35:05;15.10;;;14.60;;
8476;SDS011;4275;42.854;23.222;2024-02-04T03:37:33;14.10;;;13.60;;
8476;SDS011;4275;42.854;23.222;2024-02-04T03:40:00;12.63;;;12.23;;
8476;SDS011;4275;42.854;23.222;2024-02-04T03:42:27;12.20;;;11.80;;
8476;SDS011;4275;42.854;23.222;2024-02-04T03:44:53;14.07;;;13.57;;
8476;SDS011;4275;42.854;23.222;2024-02-04T03:47:20;13.33;;;12.93;;
8476;SDS011;4275;42.854;23.222;2024-02-04T03:49:47;11.97;;;11.57;;
8476;SDS011;4275;42.854;23.222;2024-02-04T03:52:16;11.60;;;11.20;;
8476;SDS011;4275;42.854;23.222;2024-02-04T03:54:42;13.00;;;12.60;;
8476;SDS011;4275;42.854;23.222;2024-02-04T03:57:09;14.57;;;14.07;;
8476;SDS011;4275;42.854;23.222;2024-02-04T03:59:36;14.40;;;13.90;;
8476;SDS011;4275;42.854;23.222;2024-02-04T04:02:04;12.30;;;11.90;;
8476;SDS011;4275;42.854;23.222;2024-02-04T04:04:31;15.03;;;14.53;;
8476;SDS011;4275;42.854;23.222;2024-02-04T04:06:57;14.13;;;13.63;;
8476;SDS011;4275;42.854;23.222;2024-02-04T04:09:26;14.30;;;13.80;;
8476;SDS011;4275;42.854;23.222;2024-02-04T04:11:54;11.77;;;11.37;;
8476;SDS011;4275;42.854;23.222;2024-02-04T04:14:21;13.77;;;13.37;;
8476;SDS011;4275;42.854;23.222;2024-02-04T04:16:47;13.73;;;13.33;;
8476;SDS011;4275;42.854;23.222;2024-02-04T04:19:14;14.63;;;14.13;;
8476;SDS011;4275;42.854;23.222;2024-02-04T04:21:41;12.10;;;11.70;;
8476;SDS011;4275;42.854;23.222;2024-02-04T04:24:08;11.87;;;11.47;;
8476;SDS011;4275;42.854;23.222;2024-02-04T04:26:36;13.80;;;13.40;;
8476;SDS011;4275;42.854;23.222;2024-02-04T04:29:03;13.43;;;13.03;;
8476;SDS011;4275;42.854;23.222;2024-02-04T04:31:30;11.40;;;11.00;;
8476;SDS011;4275;42.854;23.222;2024-02-04T04:33:57;14.03;;;13.53;;
8476;SDS011;4275;42.854;23.222;2024-02-04T04:36:24;13.73;;;13.27;;
8476;SDS011;4275;42.854;23.222;2024-02-04T04:38:51;14.37;;;13.87;;
8476;SDS011;4275;42.854;23.222;2024-02-04T04:41:18;12.40;;;12.00;;
8476;SDS011;4275;42.854;23.222;2024-02-04T04:43:46;14.93;;;14.37;;
8476;SDS011;4275;42.854;23.222;2024-02-04T04:46:13;15.30;;;14.70;;
8476;SDS011;4275;42.854;23.222;2024-02-04T04:48:40;14.60;;;14.00;;
8476;SDS011;4275;42.854;23.222;2024-02-04T04:51:07;13.97;;;13.47;;
8476;SDS011;4275;42.854;23.222;2024-02-04T04:53:34;17.03;;;16.33;;
8476;SDS011;4275;42.854;23.222;2024-02-04T04:56:01;16.63;;;15.93;;
8476;SDS011;4275;42.854;23.222;2024-02-04T04:58:28;14.67;;;14.07;;
8476;SDS011;4275;42.854;23.222;2024-02-04T05:00:56;14.80;;;14.20;;
8476;SDS011;4275;42.854;23.222;2024-02-04T05:03:23;16.67;;;15.97;;
8476;SDS011;4275;42.854;23.222;2024-02-04T05:05:50;16.33;;;15.63;;
8476;SDS011;4275;42.854;23.222;2024-02-04T05:08:17;13.80;;;13.30;;
8476;SDS011;4275;42.854;23.222;2024-02-04T05:10:44;13.70;;;13.20;;
8476;SDS011;4275;42.854;23.222;2024-02-04T05:13:11;16.10;;;15.40;;
8476;SDS011;4275;42.854;23.222;2024-02-04T05:15:38;15.70;;;15.10;;
8476;SDS011;4275;42.854;23.222;2024-02-04T05:18:06;13.70;;;13.20;;
8476;SDS011;4275;42.854;23.222;2024-02-04T05:20:33;13.87;;;13.37;;
8476;SDS011;4275;42.854;23.222;2024-02-04T05:23:00;16.00;;;15.40;;
8476;SDS011;4275;42.854;23.222;2024-02-04T05:25:27;16.10;;;15.50;;
8476;SDS011;4275;42.854;23.222;2024-02-04T05:27:54;14.90;;;14.30;;
8476;SDS011;4275;42.854;23.222;2024-02-04T05:30:21;15.30;;;14.60;;
8476;SDS011;4275;42.854;23.222;2024-02-04T05:32:47;17.20;;;16.40;;
8476;SDS011;4275;42.854;23.222;2024-02-04T05:35:16;17.10;;;16.30;;
8476;SDS011;4275;42.854;23.222;2024-02-04T05:37:43;15.60;;;14.90;;
8476;SDS011;4275;42.854;23.222;2024-02-04T05:40:10;15.83;;;15.03;;
8476;SDS011;4275;42.854;23.222;2024-02-04T05:42:40;17.97;;;17.10;;
8476;SDS011;4275;42.854;23.222;2024-02-04T05:45:07;18.77;;;17.87;;
8476;SDS011;4275;42.854;23.222;2024-02-04T05:47:35;16.23;;;15.43;;
8476;SDS011;4275;42.854;23.222;2024-02-04T05:50:02;15.70;;;15.00;;
8476;SDS011;4275;42.854;23.222;2024-02-04T05:52:31;17.57;;;16.77;;
8476;SDS011;4275;42.854;23.222;2024-02-04T05:54:57;17.57;;;16.77;;
8476;SDS011;4275;42.854;23.222;2024-02-04T05:57:24;15.17;;;14.47;;
8476;SDS011;4275;42.854;23.222;2024-02-04T05:59:51;15.40;;;14.70;;
8476;SDS011;4275;42.854;23.222;2024-02-04T06:02:20;16.80;;;16.10;;
8476;SDS011;4275;42.854;23.222;2024-02-04T06:04:48;16.83;;;16.03;;
8476;SDS011;4275;42.854;23.222;2024-02-04T06:07:15;15.70;;;15.00;;
8476;SDS011;4275;42.854;23.222;2024-02-04T06:09:43;18.23;;;16.93;;
8476;SDS011;4275;42.854;23.222;2024-02-04T06:12:10;16.90;;;16.10;;
8476;SDS011;4275;42.854;23.222;2024-02-04T06:14:37;16.83;;;16.03;;
8476;SDS011;4275;42.854;23.222;2024-02-04T06:17:05;14.93;;;14.23;;
8476;SDS011;4275;42.854;23.222;2024-02-04T06:19:33;14.57;;;13.97;;
8476;SDS011;4275;42.854;23.222;2024-02-04T06:22:00;16.53;;;15.83;;
8476;SDS011;4275;42.854;23.222;2024-02-04T06:24:27;17.20;;;16.43;;
8476;SDS011;4275;42.854;23.222;2024-02-04T06:26:56;14.93;;;14.23;;
8476;SDS011;4275;42.854;23.222;2024-02-04T06:29:23;15.20;;;14.50;;
8476;SDS011;4275;42.854;23.222;2024-02-04T06:31:49;17.40;;;16.60;;
8476;SDS011;4275;42.854;23.222;2024-02-04T06:34:16;18.90;;;17.90;;
8476;SDS011;4275;42.854;23.222;2024-02-04T06:36:43;15.80;;;15.00;;
8476;SDS011;4275;42.854;23.222;2024-02-04T06:39:11;18.40;;;17.50;;
8476;SDS011;4275;42.854;23.222;2024-02-04T06:41:38;18.57;;;17.67;;
8476;SDS011;4275;42.854;23.222;2024-02-04T06:44:06;19.40;;;18.40;;
8476;SDS011;4275;42.854;23.222;2024-02-04T06:46:33;15.87;;;15.07;;
8476;SDS011;4275;42.854;23.222;2024-02-04T06:49:00;18.37;;;17.37;;
8476;SDS011;4275;42.854;23.222;2024-02-04T06:51:27;17.50;;;16.60;;
8476;SDS011;4275;42.854;23.222;2024-02-04T06:53:54;17.27;;;16.37;;
8476;SDS011;4275;42.854;23.222;2024-02-04T06:56:22;15.97;;;15.17;;
8476;SDS011;4275;42.854;23.222;2024-02-04T06:58:49;19.57;;;18.57;;
8476;SDS011;4275;42.854;23.222;2024-02-04T07:01:17;18.57;;;17.67;;
8476;SDS011;4275;42.854;23.222;2024-02-04T07:03:44;16.07;;;15.27;;
8476;SDS011;4275;42.854;23.222;2024-02-04T07:06:11;16.60;;;15.70;;
8476;SDS011;4275;42.854;23.222;2024-02-04T07:08:39;18.93;;;17.93;;
8476;SDS011;4275;42.854;23.222;2024-02-04T07:11:06;17.93;;;17.03;;
8476;SDS011;4275;42.854;23.222;2024-02-04T07:13:33;16.60;;;15.70;;
8476;SDS011;4275;42.854;23.222;2024-02-04T07:16:00;17.43;;;16.53;;
8476;SDS011;4275;42.854;23.222;2024-02-04T07:18:28;18.83;;;17.83;;
8476;SDS011;4275;42.854;23.222;2024-02-04T07:20:55;18.47;;;17.47;;
8476;SDS011;4275;42.854;23.222;2024-02-04T07:23:22;18.20;;;17.30;;
8476;SDS011;4275;42.854;23.222;2024-02-04T07:25:49;19.90;;;18.90;;
8476;SDS011;4275;42.854;23.222;2024-02-04T07:28:16;23.27;;;22.07;;
8476;SDS011;4275;42.854;23.222;2024-02-04T07:30:43;25.90;;;24.60;;
8476;SDS011;4275;42.854;23.222;2024-02-04T07:33:10;17.40;;;16.50;;
8476;SDS011;4275;42.854;23.222;2024-02-04T07:35:41;16.60;;;15.70;;
8476;SDS011;4275;42.854;23.222;2024-02-04T07:38:08;18.53;;;17.53;;
8476;SDS011;4275;42.854;23.222;2024-02-04T07:40:35;19.30;;;18.30;;
8476;SDS011;4275;42.854;23.222;2024-02-04T07:43:02;16.43;;;15.53;;
8476;SDS011;4275;42.854;23.222;2024-02-04T07:45:28;15.73;;;14.93;;
8476;SDS011;4275;42.854;23.222;2024-02-04T07:47:55;18.13;;;17.23;;
8476;SDS011;4275;42.854;23.222;2024-02-04T07:50:22;19.13;;;18.13;;
8476;SDS011;4275;42.854;23.222;2024-02-04T07:52:51;15.90;;;15.10;;
8476;SDS011;4275;42.854;23.222;2024-02-04T07:55:18;15.60;;;14.80;;
8476;SDS011;4275;42.854;23.222;2024-02-04T07:57:45;18.37;;;17.37;;
8476;SDS011;4275;42.854;23.222;2024-02-04T08:00:12;18.50;;;17.50;;
8476;SDS011;4275;42.854;23.222;2024-02-04T08:02:40;16.27;;;15.47;;
8476;SDS011;4275;42.854;23.222;2024-02-04T08:05:10;17.30;;;16.30;;
8476;SDS011;4275;42.854;23.222;2024-02-04T08:07:37;20.97;;;19.83;;
8476;SDS011;4275;42.854;23.222;2024-02-04T08:10:06;19.40;;;18.30;;
8476;SDS011;4275;42.854;23.222;2024-02-04T08:12:34;17.47;;;16.47;;
8476;SDS011;4275;42.854;23.222;2024-02-04T08:15:01;17.97;;;16.97;;
8476;SDS011;4275;42.854;23.222;2024-02-04T08:17:28;28.58;;;26.00;;
8476;SDS011;4275;42.854;23.222;2024-02-04T08:19:56;19.02;;;17.83;;
8476;SDS011;4275;42.854;23.222;2024-02-04T08:22:23;18.02;;;16.92;;
8476;SDS011;4275;42.854;23.222;2024-02-04T08:24:50;18.15;;;17.05;;
8476;SDS011;4275;42.854;23.222;2024-02-04T08:27:18;19.33;;;18.10;;
8476;SDS011;4275;42.854;23.222;2024-02-04T08:29:45;17.95;;;16.85;;
8476;SDS011;4275;42.854;23.222;2024-02-04T08:32:12;18.38;;;17.27;;
8476;SDS011;4275;42.854;23.222;2024-02-04T08:34:39;19.08;;;17.88;;
8476;SDS011;4275;42.854;23.222;2024-02-04T08:37:06;19.60;;;18.40;;
8476;SDS011;4275;42.854;23.222;2024-02-04T08:39:33;19.63;;;18.42;;
8476;SDS011;4275;42.854;23.222;2024-02-04T08:42:00;19.88;;;18.58;;
8476;SDS011;4275;42.854;23.222;2024-02-04T08:44:28;21.95;;;20.55;;
8476;SDS011;4275;42.854;23.222;2024-02-04T08:46:55;19.05;;;17.75;;
8476;SDS011;4275;42.854;23.222;2024-02-04T08:49:22;19.20;;;17.90;;
8476;SDS011;4275;42.854;23.222;2024-02-04T08:51:49;19.10;;;17.80;;
8476;SDS011;4275;42.854;23.222;2024-02-04T08:54:16;18.83;;;17.52;;
8476;SDS011;4275;42.854;23.222;2024-02-04T08:56:44;19.23;;;17.95;;
8476;SDS011;4275;42.854;23.222;2024-02-04T08:59:13;19.27;;;17.98;;
8476;SDS011;4275;42.854;23.222;2024-02-04T09:01:42;19.70;;;18.40;;
8476;SDS011;4275;42.854;23.222;2024-02-04T09:04:09;19.65;;;18.30;;
8476;SDS011;4275;42.854;23.222;2024-02-04T09:06:36;19.30;;;18.00;;
8476;SDS011;4275;42.854;23.222;2024-02-04T09:09:03;19.13;;;17.83;;
8476;SDS011;4275;42.854;23.222;2024-02-04T09:11:29;19.13;;;17.83;;
8476;SDS011;4275;42.854;23.222;2024-02-04T09:13:56;22.85;;;21.35;;
8476;SDS011;4275;42.854;23.222;2024-02-04T09:16:23;19.08;;;17.77;;
8476;SDS011;4275;42.854;23.222;2024-02-04T09:18:52;19.17;;;17.88;;
8476;SDS011;4275;42.854;23.222;2024-02-04T09:21:19;19.65;;;18.25;;
8476;SDS011;4275;42.854;23.222;2024-02-04T09:23:45;19.55;;;18.15;;
8476;SDS011;4275;42.854;23.222;2024-02-04T09:26:12;20.35;;;18.85;;
8476;SDS011;4275;42.854;23.222;2024-02-04T09:28:39;20.40;;;18.90;;
8476;SDS011;4275;42.854;23.222;2024-02-04T09:31:07;20.48;;;18.98;;
8476;SDS011;4275;42.854;23.222;2024-02-04T09:33:34;20.40;;;18.90;;
8476;SDS011;4275;42.854;23.222;2024-02-04T09:36:04;21.10;;;19.50;;
8476;SDS011;4275;42.854;23.222;2024-02-04T09:38:32;21.15;;;19.55;;
8476;SDS011;4275;42.854;23.222;2024-02-04T09:41:00;21.25;;;19.65;;
8476;SDS011;4275;42.854;23.222;2024-02-04T09:43:29;21.80;;;20.20;;
8476;SDS011;4275;42.854;23.222;2024-02-04T09:45:58;22.10;;;20.40;;
8476;SDS011;4275;42.854;23.222;2024-02-04T09:48:25;23.15;;;21.35;;
8476;SDS011;4275;42.854;23.222;2024-02-04T09:50:56;22.45;;;20.65;;
8476;SDS011;4275;42.854;23.222;2024-02-04T09:53:26;21.73;;;20.02;;
8476;SDS011;4275;42.854;23.222;2024-02-04T09:55:58;21.70;;;20.00;;
8476;SDS011;4275;42.854;23.222;2024-02-04T09:58:25;23.67;;;21.92;;
8476;SDS011;4275;42.854;23.222;2024-02-04T10:00:52;23.90;;;22.10;;
8476;SDS011;4275;42.854;23.222;2024-02-04T10:03:21;23.50;;;21.70;;
8476;SDS011;4275;42.854;23.222;2024-02-04T10:05:48;22.50;;;20.80;;
8476;SDS011;4275;42.854;23.222;2024-02-04T10:08:15;22.33;;;20.58;;
8476;SDS011;4275;42.854;23.222;2024-02-04T10:10:44;23.02;;;21.23;;
8476;SDS011;4275;42.854;23.222;2024-02-04T10:13:11;22.23;;;20.52;;
8476;SDS011;4275;42.854;23.222;2024-02-04T10:15:38;21.52;;;19.90;;
8476;SDS011;4275;42.854;23.222;2024-02-04T10:18:07;21.17;;;19.58;;
8476;SDS011;4275;42.854;23.222;2024-02-04T10:20:34;20.80;;;19.25;;
8476;SDS011;4275;42.854;23.222;2024-02-04T10:23:01;20.77;;;19.17;;
8476;SDS011;4275;42.854;23.222;2024-02-04T10:25:29;21.00;;;19.40;;
8476;SDS011;4275;42.854;23.222;2024-02-04T10:27:58;20.73;;;19.23;;
8476;SDS011;4275;42.854;23.222;2024-02-04T10:30:25;21.00;;;19.40;;
8476;SDS011;4275;42.854;23.222;2024-02-04T10:32:52;25.10;;;23.30;;
8476;SDS011;4275;42.854;23.222;2024-02-04T10:35:20;22.50;;;20.90;;
8476;SDS011;4275;42.854;23.222;2024-02-04T10:37:48;20.10;;;18.70;;
8476;SDS011;4275;42.854;23.222;2024-02-04T10:40:15;19.30;;;18.00;;
8476;SDS011;4275;42.854;23.222;2024-02-04T10:42:42;19.13;;;17.83;;
8476;SDS011;4275;42.854;23.222;2024-02-04T10:45:11;19.58;;;18.17;;
8476;SDS011;4275;42.854;23.222;2024-02-04T10:47:43;18.90;;;17.60;;
8476;SDS011;4275;42.854;23.222;2024-02-04T10:50:14;19.25;;;17.95;;
8476;SDS011;4275;42.854;23.222;2024-02-04T10:52:43;18.88;;;17.65;;
8476;SDS011;4275;42.854;23.222;2024-02-04T10:55:12;19.50;;;18.23;;
8476;SDS011;4275;42.854;23.222;2024-02-04T10:57:41;19.70;;;18.40;;
8476;SDS011;4275;42.854;23.222;2024-02-04T11:00:08;19.42;;;18.23;;
8476;SDS011;4275;42.854;23.222;2024-02-04T11:02:38;19.88;;;18.67;;
8476;SDS011;4275;42.854;23.222;2024-02-04T11:05:11;20.10;;;18.70;;
8476;SDS011;4275;42.854;23.222;2024-02-04T11:07:40;19.55;;;18.25;;
8476;SDS011;4275;42.854;23.222;2024-02-04T11:10:08;19.85;;;18.55;;
8476;SDS011;4275;42.854;23.222;2024-02-04T11:12:36;20.10;;;18.70;;
8476;SDS011;4275;42.854;23.222;2024-02-04T11:15:07;20.15;;;18.75;;
8476;SDS011;4275;42.854;23.222;2024-02-04T11:17:50;20.35;;;18.85;;
8476;SDS011;4275;42.854;23.222;2024-02-04T11:20:40;20.65;;;19.15;;
8476;SDS011;4275;42.854;23.222;2024-02-04T11:23:27;23.25;;;21.65;;
8476;SDS011;4275;42.854;23.222;2024-02-04T11:26:03;23.15;;;21.45;;
8476;SDS011;4275;42.854;23.222;2024-02-04T11:28:31;22.90;;;21.20;;
8476;SDS011;4275;42.854;23.222;2024-02-04T11:30:59;23.52;;;21.73;;
8476;SDS011;4275;42.854;23.222;2024-02-04T11:33:28;22.00;;;20.40;;
8476;SDS011;4275;42.854;23.222;2024-02-04T11:35:58;22.77;;;21.08;;
8476;SDS011;4275;42.854;23.222;2024-02-04T11:38:29;23.40;;;21.60;;
8476;SDS011;4275;42.854;23.222;2024-02-04T11:40:57;23.80;;;22.00;;
8476;SDS011;4275;42.854;23.222;2024-02-04T11:43:24;26.02;;;24.13;;
8476;SDS011;4275;42.854;23.222;2024-02-04T11:45:51;24.70;;;22.80;;
8476;SDS011;4275;42.854;23.222;2024-02-04T11:48:19;24.48;;;22.48;;
8476;SDS011;4275;42.854;23.222;2024-02-04T11:50:53;23.70;;;21.80;;
8476;SDS011;4275;42.854;23.222;2024-02-04T11:53:20;24.20;;;22.30;;
8476;SDS011;4275;42.854;23.222;2024-02-04T11:55:48;24.80;;;22.80;;
8476;SDS011;4275;42.854;23.222;2024-02-04T11:58:18;24.42;;;22.52;;
8476;SDS011;4275;42.854;23.222;2024-02-04T12:00:46;24.05;;;22.15;;
8476;SDS011;4275;42.854;23.222;2024-02-04T12:03:14;29.25;;;27.05;;
8476;SDS011;4275;42.854;23.222;2024-02-04T12:05:41;25.35;;;23.35;;
8476;SDS011;4275;42.854;23.222;2024-02-04T12:08:10;24.35;;;22.45;;
8476;SDS011;4275;42.854;23.222;2024-02-04T12:10:38;24.20;;;22.30;;
8476;SDS011;4275;42.854;23.222;2024-02-04T12:13:07;23.38;;;21.58;;
8476;SDS011;4275;42.854;23.222;2024-02-04T12:15:34;22.00;;;20.30;;
8476;SDS011;4275;42.854;23.222;2024-02-04T12:18:08;21.55;;;19.85;;
8476;SDS011;4275;42.854;23.222;2024-02-04T12:20:35;21.35;;;19.65;;
8476;SDS011;4275;42.854;23.222;2024-02-04T12:23:04;22.52;;;20.63;;
8476;SDS011;4275;42.854;23.222;2024-02-04T12:25:33;22.30;;;20.50;;
8476;SDS011;4275;42.854;23.222;2024-02-04T12:28:01;23.73;;;21.92;;
8476;SDS011;4275;42.854;23.222;2024-02-04T12:30:29;22.30;;;20.50;;
8476;SDS011;4275;42.854;23.222;2024-02-04T12:32:57;23.50;;;21.70;;
8476;SDS011;4275;42.854;23.222;2024-02-04T12:35:24;23.42;;;21.63;;
8476;SDS011;4275;42.854;23.222;2024-02-04T12:37:53;22.15;;;20.45;;
8476;SDS011;4275;42.854;23.222;2024-02-04T12:40:20;22.00;;;20.30;;
8476;SDS011;4275;42.854;23.222;2024-02-04T12:42:53;22.50;;;20.80;;
8476;SDS011;4275;42.854;23.222;2024-02-04T12:45:21;26.85;;;25.05;;
8476;SDS011;4275;42.854;23.222;2024-02-04T12:47:49;21.30;;;19.70;;
8476;SDS011;4275;42.854;23.222;2024-02-04T12:50:17;21.80;;;20.10;;
8476;SDS011;4275;42.854;23.222;2024-02-04T12:52:44;23.50;;;21.70;;
8476;SDS011;4275;42.854;23.222;2024-02-04T12:55:22;27.08;;;25.08;;
8476;SDS011;4275;42.854;23.222;2024-02-04T12:57:50;23.45;;;21.65;;
8476;SDS011;4275;42.854;23.222;2024-02-04T13:00:19;22.80;;;21.10;;
8476;SDS011;4275;42.854;23.222;2024-02-04T13:02:48;23.40;;;21.60;;
8476;SDS011;4275;42.854;23.222;2024-02-04T13:05:22;21.73;;;20.02;;
8476;SDS011;4275;42.854;23.222;2024-02-04T13:07:51;22.85;;;21.05;;
8476;SDS011;4275;42.854;23.222;2024-02-04T13:10:20;23.65;;;21.75;;
8476;SDS011;4275;42.854;23.222;2024-02-04T13:12:57;22.17;;;20.48;;
8476;SDS011;4275;42.854;23.222;2024-02-04T13:15:27;22.65;;;20.85;;
8476;SDS011;4275;42.854;23.222;2024-02-04T13:17:54;22.90;;;21.10;;
8476;SDS011;4275;42.854;23.222;2024-02-04T13:20:21;22.45;;;20.65;;
8476;SDS011;4275;42.854;23.222;2024-02-04T13:22:49;21.38;;;19.67;;
8476;SDS011;4275;42.854;23.222;2024-02-04T13:25:16;21.92;;;20.23;;
8476;SDS011;4275;42.854;23.222;2024-02-04T13:27:43;22.05;;;20.35;;
8476;SDS011;4275;42.854;23.222;2024-02-04T13:30:10;22.20;;;20.50;;
8476;SDS011;4275;42.854;23.222;2024-02-04T13:32:39;25.17;;;23.27;;
8476;SDS011;4275;42.854;23.222;2024-02-04T13:35:07;24.30;;;22.50;;
8476;SDS011;4275;42.854;23.222;2024-02-04T13:37:35;23.95;;;22.15;;
8476;SDS011;4275;42.854;23.222;2024-02-04T13:40:03;24.30;;;22.42;;
8476;SDS011;4275;42.854;23.222;2024-02-04T13:42:31;24.23;;;22.38;;
8476;SDS011;4275;42.854;23.222;2024-02-04T13:44:59;25.10;;;23.20;;
8476;SDS011;4275;42.854;23.222;2024-02-04T13:47:27;24.90;;;23.00;;
8476;SDS011;4275;42.854;23.222;2024-02-04T13:49:56;25.33;;;23.42;;
8476;SDS011;4275;42.854;23.222;2024-02-04T13:52:23;26.00;;;24.00;;
8476;SDS011;4275;42.854;23.222;2024-02-04T13:54:51;25.98;;;23.98;;
8476;SDS011;4275;42.854;23.222;2024-02-04T13:57:18;25.42;;;23.52;;
8476;SDS011;4275;42.854;23.222;2024-02-04T13:59:45;25.35;;;23.45;;
8476;SDS011;4275;42.854;23.222;2024-02-04T14:02:12;23.88;;;21.98;;
8476;SDS011;4275;42.854;23.222;2024-02-04T14:04:39;22.45;;;20.65;;
8476;SDS011;4275;42.854;23.222;2024-02-04T14:07:07;23.40;;;21.60;;
8476;SDS011;4275;42.854;23.222;2024-02-04T14:09:34;23.50;;;21.70;;
8476;SDS011;4275;42.854;23.222;2024-02-04T14:12:01;23.27;;;21.48;;
8476;SDS011;4275;42.854;23.222;2024-02-04T14:14:29;22.55;;;20.77;;
8476;SDS011;4275;42.854;23.222;2024-02-04T14:16:56;22.83;;;21.02;;
8476;SDS011;4275;42.854;23.222;2024-02-04T14:19:23;22.15;;;20.45;;
8476;SDS011;4275;42.854;23.222;2024-02-04T14:21:50;23.02;;;21.23;;
8476;SDS011;4275;42.854;23.222;2024-02-04T14:24:19;22.17;;;20.48;;
8476;SDS011;4275;42.854;23.222;2024-02-04T14:26:46;22.20;;;20.50;;
8476;SDS011;4275;42.854;23.222;2024-02-04T14:29:13;22.55;;;20.75;;
8476;SDS011;4275;42.854;23.222;2024-02-04T14:31:41;22.17;;;20.48;;
8476;SDS011;4275;42.854;23.222;2024-02-04T14:34:08;23.95;;;22.23;;
8476;SDS011;4275;42.854;23.222;2024-02-04T14:36:35;23.98;;;22.25;;